Pagrindinis puslapis
METAR-TAF:

METAR-TAF

Oro uostai :

Kuenka, Ekvadoras

platuma: 02-53-22S, ilguma: 078-59-04W, Aukštis: 2532 m

Dabartinis oras

Ataskaita buvo paskelbta 1 valandą ir 19 minutes, ne 15:00 UTC
Vėjas 5 kt iš Rytų/Šiaurės Rytų
Temperatūra 18°C
Drėgmė 56%
Slėgis 1030 hPa
Matomumas 10 km arba daugiau
Su prošvaistėmis ne aukštis 4000 ft

METAR: SECU 221500Z 06005KT 9999 BKN040 18/09 Q1030

Laikas: 11:19 (16:19 UTC)


TAF: trūkstamas

Orai ataskaitas ir orų prognozės (METAR, TAF).

turimą stotys yra geltonos ir raudonos taškus žemėlapyje.

Perkelti pele per norėdami pamatyti stoties vardą.

Tada spustelėkite, norėdami matyti oro stebėjimo ir prognozės.

Norėdami pakeisti žemėlapį: spustelėkite ant žalios mygtukų su juodo kryžiaus žemyn,; žalią mygtuką su brūkšneliu, jei norite nutolinti; arba žalių rodyklių gretimoms žemėlapius.


METAR-TAF: